Wyoming Mesonet
Water Resources Data System and State Climate Office


SEO WACNet, UW USACE UMRB, USDA-ARS, BLM

Cowley (CYMW4)

Stake (Looking West)
Tower (Looking West)

Air Temperatures (F)
Precipitation (inches)

Snow Depth (in)
Frost Depth

Wind Speed (mph)
Wind Direction (Degrees)

Humidity (%)
Solar Radiation (watts per square meter)

Soil Moisture
Soil Moisture

Soil Temperature
Soil Temperature

Sea-Level Pressure (in Hg)
Bare Soil Temperature with Soil and Air

Wind Soil
Temp Precip Speed Dir Gust Dir Humidity Pressure Solar Snow Temperature (Deg F) Moisture (%)
Date Time (MST) (F) (in) (mph) (deg) (mph) (deg) (%) (Mbars) (w/m^2) (in) 5cm 10cm 20cm 50cm 1m 5cm 10cm 20cm 50cm 1m
2026-08-30 00:00:00 63.48 0.00 1.01 168 6.09 123 73.3 872.0 0.0 11.8 74.48 75.92 77.72 74.30 69.26 1.5% 9.7% 21.0% 20.8% 24.9%
2026-08-30 01:00:00 61.50 0.00 0.63 48 5.96 88 77.7 872.0 0.0 11.7 73.40 75.38 77.36 74.48 69.44 1.5% 9.6% 21.0% 20.8% 25.1%
2026-08-30 02:00:00 62.47 0.00 1.59 236 3.35 225 72.2 872.0 0.0 11.8 72.50 74.48 77.00 74.48 69.26 1.4% 9.5% 20.9% 20.7% 24.9%
2026-08-30 03:00:00 59.11 0.00 6.69 293 17.27 249 77.7 872.0 0.0 11.9 72.14 73.76 76.64 74.48 69.26 1.4% 9.5% 21.0% 20.7% 25.0%
2026-08-30 04:00:00 59.68 0.00 9.46 44 12.17 60 75.5 871.0 0.0 11.9 71.42 73.22 76.28 74.48 69.26 1.4% 9.4% 20.9% 20.7% 25.1%
2026-08-30 05:00:00 60.67 0.00 5.92 70 12.17 41 69.0 872.0 0.0 11.8 70.70 72.50 75.92 74.48 69.26 1.4% 9.4% 20.9% 20.7% 25.0%
2026-08-30 06:00:00 57.58 0.00 2.97 90 7.21 36 76.2 872.0 39.0 11.7 69.80 71.96 75.56 74.48 69.26 1.4% 9.4% 20.9% 20.8% 25.0%
2026-08-30 07:00:00 60.93 0.00 4.74 102 9.32 44 69.1 872.0 46.6 11.9 69.26 71.24 75.20 74.48 69.26 1.4% 9.3% 20.9% 20.6% 25.0%
2026-08-30 08:00:00 65.98 0.00 3.59 320 6.83 24 55.7 872.0 380.9 11.8 69.44 70.88 75.02 74.48 69.26 1.4% 9.2% 20.9% 20.7% 25.0%
2026-08-30 09:00:00 69.49 0.00 3.55 302 6.58 289 48.0 872.0 553.0 11.9 71.24 71.42 74.48 74.48 69.26 1.4% 9.3% 20.9% 20.7% 25.1%
2026-08-30 10:00:00 64.31 0.00 44.92 313 55.77 309 50.0 874.0 366.1 11.9 74.48 72.86 74.30 74.48 69.26 1.5% 9.3% 20.9% 20.7% 25.0%
2026-08-30 11:00:00 67.24 0.00 13.83 336 50.69 318 43.9 874.0 397.1 11.9 75.38 74.84 74.12 74.48 69.26 1.5% 9.6% 20.9% 20.8% 25.0%
2026-08-30 12:00:00 70.30 0.00 10.18 332 36.53 312 35.1 873.0 873.0 12.0 75.74 75.20 74.12 74.66 69.26 1.5% 9.6% 20.9% 20.7% 25.0%
2026-08-30 13:00:00 71.46 0.00 5.58 165 16.65 304 34.8 873.0 828.0 11.9 78.62 76.82 74.30 74.48 69.26 1.5% 9.7% 20.9% 20.7% 25.1%
2026-08-30 14:00:00 74.41 0.00 6.65 147 14.91 126 30.0 872.0 767.7 11.9 82.04 79.52 74.48 74.30 69.26 1.5% 9.8% 20.9% 20.7% 25.0%
2026-08-30 15:00:00 76.23 0.00 8.33 335 16.27 272 28.9 872.0 648.7 12.0 84.38 81.86 75.02 74.48 69.26 1.6% 9.9% 20.9% 20.7% 25.0%
2026-08-30 16:00:00 74.25 0.00 4.68 312 13.91 300 29.9 872.0 499.1 11.8 84.56 83.30 75.20 74.30 69.08 1.6% 10.0% 20.9% 20.8% 25.0%
2026-08-30 17:00:00 75.45 0.00 4.60 299 11.68 314 24.7 873.0 326.0 11.7 84.02 83.84 75.92 74.48 69.26 1.6% 10.0% 21.0% 20.6% 25.1%
2026-08-30 18:00:00 74.12 0.00 0.13 239 9.69 285 24.2 873.0 146.6 11.6 82.58 83.84 76.64 74.30 69.26 1.6% 10.0% 21.0% 20.7% 25.1%
2026-08-30 19:00:00 68.74 0.00 8.46 84 12.55 81 37.9 873.0 1.7 11.8 80.96 82.76 77.18 74.12 69.08 1.5% 10.1% 21.0% 20.7% 25.0%
2026-08-30 20:00:00 65.89 0.00 6.16 48 12.17 71 40.1 873.0 0.0 11.7 78.98 81.50 77.36 74.12 69.26 1.5% 10.0% 21.0% 20.7% 25.1%
2026-08-30 21:00:00 62.85 0.00 6.38 41 10.93 50 44.9 874.0 0.0 11.7 77.18 79.88 77.54 74.12 69.26 1.5% 9.9% 21.0% 20.7% 25.0%
2026-08-30 22:00:00 60.89 0.00 1.79 21 7.08 316 46.3 874.0 0.0 11.7 75.20 78.44 77.54 74.30 69.26 1.4% 9.8% 21.0% 20.8% 25.1%
2026-08-30 23:00:00 57.09 0.00 1.70 40 4.60 302 51.5 874.0 0.0 11.5 73.58 77.00 77.36 74.30 69.26 1.4% 9.8% 21.0% 20.7% 25.1%
Contact Tony Bergantino for availability of additional data